createdAt,value
2023-07-14T00:00:48.071Z,17.40
2023-07-14T00:03:37.082Z,18.93
2023-07-14T00:06:08.621Z,16.57
2023-07-14T00:11:14.078Z,22.63
2023-07-14T00:13:44.680Z,17.40
2023-07-14T00:16:18.107Z,22.00
2023-07-14T00:18:48.411Z,17.67
2023-07-14T00:21:22.166Z,20.40
2023-07-14T00:23:57.413Z,19.30
2023-07-14T00:26:27.555Z,23.13
2023-07-14T00:28:57.815Z,23.27
2023-07-14T00:31:28.481Z,20.30
2023-07-14T00:33:58.954Z,22.67
2023-07-14T00:36:30.074Z,16.20
2023-07-14T00:38:59.978Z,19.83
2023-07-14T00:41:30.140Z,19.03
2023-07-14T00:44:00.016Z,16.55
2023-07-14T00:46:32.975Z,19.57
2023-07-14T00:49:07.837Z,15.53
2023-07-14T00:51:39.535Z,16.43
2023-07-14T00:54:25.273Z,19.00
2023-07-14T00:56:57.435Z,18.00
2023-07-14T00:59:34.053Z,18.47
2023-07-14T01:02:21.395Z,13.13
2023-07-14T01:04:54.561Z,15.83
2023-07-14T01:07:29.998Z,17.70
2023-07-14T01:10:02.641Z,10.50
2023-07-14T01:12:37.650Z,14.00
2023-07-14T01:15:10.478Z,14.47
2023-07-14T01:17:41.013Z,11.40
2023-07-14T01:20:11.920Z,13.30
2023-07-14T01:22:53.587Z,13.35
2023-07-14T01:25:37.899Z,13.87
2023-07-14T01:28:09.747Z,10.23
2023-07-14T01:33:14.082Z,12.90
2023-07-14T01:35:48.561Z,15.20
2023-07-14T01:38:19.133Z,12.23
2023-07-14T01:40:49.325Z,14.97
2023-07-14T01:43:19.425Z,16.43
2023-07-14T01:45:54.423Z,15.63
2023-07-14T01:48:28.199Z,16.83
2023-07-14T01:51:01.076Z,15.93
2023-07-14T01:53:34.047Z,9.60
2023-07-14T01:56:07.043Z,12.57
2023-07-14T01:58:44.210Z,10.03
2023-07-14T02:01:15.760Z,12.70
2023-07-14T02:03:52.150Z,10.70
2023-07-14T02:06:23.065Z,12.20
2023-07-14T02:08:53.319Z,11.87
2023-07-14T02:11:24.961Z,11.50
2023-07-14T02:13:57.325Z,8.53
2023-07-14T02:16:28.245Z,9.43
2023-07-14T02:18:59.217Z,8.47
2023-07-14T02:21:31.104Z,17.10
2023-07-14T02:24:02.095Z,7.73
2023-07-14T02:26:34.454Z,10.40
2023-07-14T02:29:07.391Z,9.20
2023-07-14T02:31:44.068Z,8.97
2023-07-14T02:34:16.097Z,11.77
2023-07-14T02:36:59.531Z,9.03
2023-07-14T02:39:32.812Z,10.90
2023-07-14T02:42:03.546Z,10.83
2023-07-14T02:44:36.946Z,10.60
2023-07-14T02:47:11.257Z,10.00
2023-07-14T02:49:41.991Z,9.73
2023-07-14T02:52:11.921Z,8.30
2023-07-14T02:54:41.827Z,16.10
2023-07-14T02:57:11.521Z,7.27
2023-07-14T02:59:41.254Z,7.70
2023-07-14T03:02:11.580Z,10.57
2023-07-14T03:04:41.678Z,9.83
2023-07-14T03:07:13.018Z,8.10
2023-07-14T03:09:43.143Z,9.07
2023-07-14T03:12:13.271Z,10.20
2023-07-14T03:14:43.509Z,8.20
2023-07-14T03:17:13.704Z,9.23
2023-07-14T03:19:43.823Z,9.80
2023-07-14T03:22:13.117Z,9.20
2023-07-14T03:24:43.240Z,7.93
2023-07-14T03:27:13.361Z,7.70
2023-07-14T03:29:43.699Z,12.23
2023-07-14T03:32:14.977Z,9.95
2023-07-14T03:34:44.943Z,9.43
2023-07-14T03:37:15.061Z,11.40
2023-07-14T03:39:45.994Z,10.80
2023-07-14T03:42:16.518Z,8.30
2023-07-14T03:44:50.134Z,18.90
2023-07-14T03:47:20.163Z,22.17
2023-07-14T03:49:52.616Z,15.33
2023-07-14T03:52:22.937Z,17.40
2023-07-14T03:54:52.838Z,14.03
2023-07-14T03:57:22.783Z,14.53
2023-07-14T03:59:52.884Z,17.10
2023-07-14T04:02:22.805Z,15.40
2023-07-14T04:04:52.534Z,15.30
2023-07-14T04:07:22.834Z,15.03
2023-07-14T04:09:53.365Z,17.17
2023-07-14T04:12:23.272Z,17.63
2023-07-14T04:14:52.671Z,17.17
2023-07-14T04:17:23.023Z,14.03
2023-07-14T04:19:53.011Z,13.70
2023-07-14T04:22:25.883Z,13.73
2023-07-14T04:24:58.703Z,13.90
2023-07-14T04:27:30.322Z,13.17
2023-07-14T04:30:00.508Z,10.73
2023-07-14T04:32:31.220Z,16.60
2023-07-14T04:35:01.059Z,12.53
2023-07-14T04:37:30.606Z,11.87
2023-07-14T04:40:00.349Z,12.03
2023-07-14T04:42:30.238Z,13.87
2023-07-14T04:45:00.200Z,12.40
2023-07-14T04:47:30.008Z,13.63
2023-07-14T04:49:59.769Z,12.77
2023-07-14T04:52:30.300Z,13.17
2023-07-14T04:55:00.408Z,14.97
2023-07-14T04:57:30.938Z,12.83
2023-07-14T05:00:01.273Z,11.10
2023-07-14T05:02:31.469Z,11.70
2023-07-14T05:05:24.229Z,11.57
2023-07-14T05:07:56.184Z,12.63
2023-07-14T05:10:27.541Z,16.73
2023-07-14T05:12:58.281Z,17.77
2023-07-14T05:15:28.804Z,20.70
2023-07-14T05:17:58.729Z,14.67
2023-07-14T05:20:29.602Z,16.50
2023-07-14T05:22:59.365Z,13.93
2023-07-14T05:25:29.688Z,9.37
2023-07-14T05:27:59.594Z,12.83
2023-07-14T05:30:29.720Z,15.03
2023-07-14T05:32:59.845Z,19.00
2023-07-14T05:35:30.155Z,13.00
2023-07-14T05:38:00.418Z,11.77
2023-07-14T05:40:42.933Z,15.43
2023-07-14T05:43:17.928Z,11.70
2023-07-14T05:45:48.872Z,9.93
2023-07-14T05:48:19.031Z,12.78
2023-07-14T05:50:49.728Z,15.07
2023-07-14T05:53:19.849Z,14.50
2023-07-14T05:55:50.351Z,11.30
2023-07-14T05:58:20.065Z,11.77
2023-07-14T06:00:50.050Z,12.97
2023-07-14T06:03:19.899Z,11.93
2023-07-14T06:05:50.426Z,12.37
2023-07-14T06:08:23.443Z,12.17
2023-07-14T06:10:54.188Z,18.70
2023-07-14T06:13:24.461Z,15.67
2023-07-14T06:15:54.783Z,12.53
2023-07-14T06:18:24.701Z,11.60
2023-07-14T06:20:54.820Z,14.33
2023-07-14T06:23:28.140Z,12.80
2023-07-14T06:25:58.533Z,11.00
2023-07-14T06:28:28.656Z,11.10
2023-07-14T06:30:59.674Z,9.27
2023-07-14T06:33:29.918Z,11.45
2023-07-14T06:36:00.445Z,9.70
2023-07-14T06:38:30.760Z,9.03
2023-07-14T06:41:02.535Z,10.95
2023-07-14T06:43:34.078Z,9.83
2023-07-14T06:46:04.526Z,9.63
2023-07-14T06:48:34.980Z,10.53
2023-07-14T06:51:05.658Z,9.33
2023-07-14T06:53:35.569Z,8.38
2023-07-14T06:56:06.516Z,8.63
2023-07-14T06:58:37.042Z,10.40
2023-07-14T07:01:07.575Z,11.27
2023-07-14T07:03:37.685Z,9.98
2023-07-14T07:06:08.025Z,11.63
2023-07-14T07:08:38.743Z,9.70
2023-07-14T07:11:10.443Z,9.17
2023-07-14T07:13:40.625Z,8.13
2023-07-14T07:16:10.854Z,10.17
2023-07-14T07:18:40.860Z,9.17
2023-07-14T07:21:13.588Z,8.67
2023-07-14T07:23:43.579Z,7.87
2023-07-14T07:26:13.798Z,7.43
2023-07-14T07:28:43.771Z,8.17
2023-07-14T07:31:15.456Z,9.20
2023-07-14T07:33:45.259Z,12.40
2023-07-14T07:36:17.037Z,12.47
2023-07-14T07:41:19.525Z,10.23
2023-07-14T07:43:49.414Z,9.73
2023-07-14T07:46:21.805Z,9.87
2023-07-14T07:48:51.698Z,8.20
2023-07-14T07:51:21.820Z,8.13
2023-07-14T07:53:51.939Z,11.77
2023-07-14T07:56:22.257Z,10.10
2023-07-14T07:58:52.243Z,9.53
2023-07-14T08:01:24.102Z,9.70
2023-07-14T08:03:54.334Z,9.83
2023-07-14T08:06:25.596Z,10.53
2023-07-14T08:08:55.445Z,8.90
2023-07-14T08:11:25.638Z,11.63
2023-07-14T08:13:55.755Z,8.57
2023-07-14T08:16:26.142Z,9.63
2023-07-14T08:18:55.782Z,11.27
2023-07-14T08:21:26.314Z,9.90
2023-07-14T08:23:56.643Z,9.48
2023-07-14T08:26:27.167Z,9.93
2023-07-14T08:28:56.887Z,8.10
2023-07-14T08:31:27.024Z,8.23
2023-07-14T08:33:57.032Z,8.67
2023-07-14T08:36:27.241Z,11.40
2023-07-14T08:38:57.093Z,8.00
2023-07-14T08:41:31.126Z,8.07
2023-07-14T08:44:17.935Z,8.67
2023-07-14T08:46:54.740Z,9.63
2023-07-14T08:49:28.366Z,9.27
2023-07-14T08:52:03.755Z,8.53
2023-07-14T08:54:43.038Z,9.57
2023-07-14T08:57:18.308Z,8.50
2023-07-14T08:59:52.569Z,8.47
2023-07-14T09:02:32.547Z,8.70
2023-07-14T09:05:06.576Z,11.10
2023-07-14T09:07:36.650Z,7.87
2023-07-14T09:10:11.775Z,8.13
2023-07-14T09:12:49.825Z,8.43
2023-07-14T09:15:23.335Z,6.43
2023-07-14T09:18:07.523Z,7.50
2023-07-14T09:20:47.985Z,9.43
2023-07-14T09:23:40.648Z,7.80
2023-07-14T09:26:17.934Z,9.57
2023-07-14T09:28:50.738Z,8.73
2023-07-14T09:31:38.874Z,6.67
2023-07-14T09:34:17.012Z,7.60
2023-07-14T09:36:47.695Z,7.77
2023-07-14T09:39:23.994Z,8.50
2023-07-14T09:41:56.148Z,7.37
2023-07-14T09:44:26.463Z,7.60
2023-07-14T09:46:57.162Z,7.53
2023-07-14T09:49:35.495Z,7.42
2023-07-14T09:52:13.152Z,7.47
2023-07-14T09:54:52.762Z,8.07
2023-07-14T09:57:38.673Z,10.43
2023-07-14T10:00:20.444Z,7.43
2023-07-14T10:03:08.621Z,7.72
2023-07-14T10:05:53.466Z,7.03
2023-07-14T10:08:30.994Z,8.17
2023-07-14T10:11:20.277Z,8.23
2023-07-14T10:13:55.521Z,7.23
2023-07-14T10:16:28.297Z,7.37
2023-07-14T10:19:01.042Z,9.73
2023-07-14T10:21:33.820Z,8.03
2023-07-14T10:24:06.417Z,8.90
2023-07-14T10:26:40.671Z,10.80
2023-07-14T10:29:21.004Z,9.27
2023-07-14T10:31:59.521Z,9.63
2023-07-14T10:34:52.956Z,10.27
2023-07-14T10:37:25.369Z,7.27
2023-07-14T10:39:59.761Z,8.30
2023-07-14T10:42:34.433Z,9.43
2023-07-14T10:45:05.367Z,6.83
2023-07-14T10:47:49.804Z,7.40
2023-07-14T10:50:21.286Z,10.03
2023-07-14T10:52:54.508Z,8.90
2023-07-14T10:55:27.883Z,7.67
2023-07-14T10:58:00.935Z,7.57
2023-07-14T11:00:37.867Z,8.57
2023-07-14T11:03:25.771Z,6.53
2023-07-14T11:05:58.972Z,7.50
2023-07-14T11:08:31.990Z,8.13
2023-07-14T11:11:11.152Z,8.57
2023-07-14T11:13:52.025Z,6.13
2023-07-14T11:16:35.138Z,6.85
2023-07-14T11:19:13.550Z,6.87
2023-07-14T11:21:50.676Z,7.05
2023-07-14T11:24:23.985Z,8.07
2023-07-14T11:27:13.578Z,10.17
2023-07-14T11:29:55.804Z,7.20
2023-07-14T11:32:31.698Z,9.30
2023-07-14T11:35:12.023Z,7.90
2023-07-14T11:37:53.808Z,8.38
2023-07-14T11:40:25.565Z,7.47
2023-07-14T11:42:59.598Z,7.70
2023-07-14T11:45:33.251Z,8.87
2023-07-14T11:48:04.793Z,5.75
2023-07-14T11:50:41.473Z,6.97
2023-07-14T11:53:22.791Z,7.73
2023-07-14T11:55:54.539Z,7.87
2023-07-14T11:58:29.780Z,6.67
2023-07-14T12:01:04.607Z,9.23
2023-07-14T12:03:37.404Z,8.80
2023-07-14T12:06:44.588Z,8.83
2023-07-14T12:09:17.147Z,6.17
2023-07-14T12:11:54.634Z,4.77
2023-07-14T12:14:45.530Z,6.27
2023-07-14T12:17:49.442Z,5.73
2023-07-14T12:20:33.620Z,7.27
2023-07-14T12:23:23.596Z,8.67
2023-07-14T12:25:59.903Z,5.85
2023-07-14T12:28:33.719Z,7.80
2023-07-14T12:31:07.396Z,8.83
2023-07-14T12:33:37.589Z,8.27
2023-07-14T12:36:15.368Z,4.05
2023-07-14T12:38:47.999Z,4.67
2023-07-14T12:41:19.724Z,6.27
2023-07-14T12:43:54.158Z,7.30
2023-07-14T12:46:27.924Z,5.40
2023-07-14T12:49:03.362Z,5.43
2023-07-14T12:51:37.247Z,7.80
2023-07-14T12:54:15.197Z,6.47
2023-07-14T12:56:45.928Z,6.47
2023-07-14T12:59:19.089Z,5.70
2023-07-14T13:01:51.168Z,6.73
2023-07-14T13:04:22.893Z,6.23
2023-07-14T13:07:03.531Z,5.07
2023-07-14T13:09:34.355Z,5.05
2023-07-14T13:12:09.366Z,6.17
2023-07-14T13:14:47.489Z,7.00
2023-07-14T13:17:22.539Z,5.70
2023-07-14T13:19:52.543Z,4.63
2023-07-14T13:22:25.688Z,4.53
2023-07-14T13:25:04.384Z,6.03
2023-07-14T13:27:37.564Z,5.27
2023-07-14T13:30:24.035Z,6.40
2023-07-14T13:32:56.418Z,6.23
2023-07-14T13:35:31.597Z,7.07
2023-07-14T13:38:14.106Z,7.13
2023-07-14T13:40:44.373Z,5.83
2023-07-14T13:43:18.058Z,7.37
2023-07-14T13:45:58.957Z,5.57
2023-07-14T13:48:32.926Z,6.13
2023-07-14T13:51:05.216Z,4.90
2023-07-14T13:53:35.922Z,3.60
2023-07-14T13:56:06.999Z,5.43
2023-07-14T13:58:37.324Z,7.27
2023-07-14T14:01:09.379Z,3.70
2023-07-14T14:03:40.544Z,4.97
2023-07-14T14:06:13.825Z,5.37
2023-07-14T14:08:44.147Z,5.93
2023-07-14T14:11:14.200Z,4.28
2023-07-14T14:13:44.384Z,5.05
2023-07-14T14:16:17.603Z,5.95
2023-07-14T14:18:50.620Z,6.20
2023-07-14T14:21:20.684Z,6.13
2023-07-14T14:23:50.801Z,5.05
2023-07-14T14:26:20.918Z,5.83
2023-07-14T14:28:51.049Z,4.90
2023-07-14T14:31:21.266Z,5.42
2023-07-14T14:33:51.484Z,6.73
2023-07-14T14:36:22.026Z,5.03
2023-07-14T14:38:51.922Z,5.87
2023-07-14T14:41:27.744Z,5.72
2023-07-14T14:43:58.308Z,4.17
2023-07-14T14:46:28.892Z,6.07
2023-07-14T14:48:59.768Z,5.30
2023-07-14T14:53:59.392Z,6.63
2023-07-14T14:56:32.296Z,6.13
2023-07-14T14:59:08.448Z,5.27
2023-07-14T15:01:43.089Z,4.13
2023-07-14T15:04:17.608Z,4.00
2023-07-14T15:06:48.492Z,4.33
2023-07-14T15:09:19.133Z,5.37
2023-07-14T15:11:52.527Z,3.20
2023-07-14T15:14:30.253Z,3.27
2023-07-14T15:17:00.848Z,2.73
2023-07-14T15:19:32.327Z,3.87
2023-07-14T15:22:02.443Z,4.03
2023-07-14T15:24:32.767Z,6.62
2023-07-14T15:27:03.091Z,3.90
2023-07-14T15:29:33.413Z,6.90
2023-07-14T15:32:03.355Z,4.70
2023-07-14T15:34:34.279Z,5.35
2023-07-14T15:37:05.818Z,5.43
2023-07-14T15:39:35.944Z,5.40
2023-07-14T15:42:10.590Z,3.65
2023-07-14T15:44:41.084Z,4.90
2023-07-14T15:47:16.528Z,3.75
2023-07-14T15:49:48.284Z,6.23
2023-07-14T15:52:21.278Z,4.40
2023-07-14T15:54:51.467Z,4.93
2023-07-14T15:57:21.741Z,4.30
2023-07-14T15:59:51.835Z,3.15
2023-07-14T16:02:21.766Z,4.15
2023-07-14T16:04:53.307Z,5.10
2023-07-14T16:07:23.426Z,6.70
2023-07-14T16:09:53.952Z,8.25
2023-07-14T16:12:24.281Z,5.50
2023-07-14T16:14:54.598Z,6.65
2023-07-14T16:17:24.572Z,4.37
2023-07-14T16:19:54.453Z,7.73
2023-07-14T16:22:24.691Z,4.83
2023-07-14T16:24:55.487Z,5.93
2023-07-14T16:27:26.832Z,5.05
2023-07-14T16:29:57.085Z,7.07
2023-07-14T16:32:28.577Z,6.17
2023-07-14T16:35:01.233Z,5.07
2023-07-14T16:37:32.846Z,7.37
2023-07-14T16:40:07.626Z,7.93
2023-07-14T16:42:39.418Z,4.87
2023-07-14T16:45:16.845Z,5.57
2023-07-14T16:47:47.295Z,5.20
2023-07-14T16:52:51.352Z,4.47
2023-07-14T16:55:24.863Z,6.10
2023-07-14T16:57:57.012Z,5.50
2023-07-14T17:00:29.093Z,5.40
2023-07-14T17:03:02.332Z,5.57
2023-07-14T17:05:35.515Z,6.67
2023-07-14T17:08:16.806Z,5.07
2023-07-14T17:10:47.393Z,7.80
2023-07-14T17:13:26.191Z,6.77
2023-07-14T17:15:58.944Z,8.20
2023-07-14T17:18:30.839Z,5.97
2023-07-14T17:21:03.299Z,5.83
2023-07-14T17:23:37.248Z,9.47
2023-07-14T17:26:07.252Z,8.10
2023-07-14T17:28:38.298Z,6.15
2023-07-14T17:31:09.831Z,6.92
2023-07-14T17:33:39.968Z,9.23
2023-07-14T17:36:12.081Z,9.43
2023-07-14T17:38:42.247Z,6.67
2023-07-14T17:41:12.865Z,8.00
2023-07-14T17:43:43.945Z,6.03
2023-07-14T17:48:43.340Z,8.60
2023-07-14T17:51:14.490Z,7.60
2023-07-14T17:56:13.338Z,7.43
2023-07-14T17:58:43.615Z,6.75
2023-07-14T18:01:16.888Z,5.40
2023-07-14T18:03:47.475Z,6.47
2023-07-14T18:06:22.143Z,7.45
2023-07-14T18:08:52.908Z,8.73
2023-07-14T18:11:25.108Z,5.53
2023-07-14T18:13:55.590Z,6.60
2023-07-14T18:16:25.719Z,7.60
2023-07-14T18:18:56.238Z,8.28
2023-07-14T18:21:26.712Z,9.15
2023-07-14T18:23:56.880Z,8.57
2023-07-14T18:26:27.408Z,5.53
2023-07-14T18:28:57.535Z,9.63
2023-07-14T18:31:27.632Z,7.72
2023-07-14T18:33:57.564Z,7.37
2023-07-14T18:36:27.885Z,8.50
2023-07-14T18:38:58.205Z,7.93
2023-07-14T18:41:28.122Z,9.83
2023-07-14T18:43:58.238Z,7.43
2023-07-14T18:46:28.739Z,9.58
2023-07-14T18:48:59.102Z,9.70
2023-07-14T18:51:34.332Z,9.00
2023-07-14T18:54:15.363Z,8.77
2023-07-14T18:59:14.337Z,10.57
2023-07-14T19:01:45.525Z,9.83
2023-07-14T19:06:47.358Z,7.50
2023-07-14T19:09:19.351Z,9.53
2023-07-14T19:11:56.186Z,8.93
2023-07-14T19:14:27.757Z,8.33
2023-07-14T19:16:58.367Z,7.67
2023-07-14T19:19:28.790Z,16.48
2023-07-14T19:21:58.902Z,9.60
2023-07-14T19:24:29.867Z,7.67
2023-07-14T19:26:59.959Z,8.75
2023-07-14T19:29:31.309Z,8.07
2023-07-14T19:32:01.267Z,9.90
2023-07-14T19:34:33.593Z,8.67
2023-07-14T19:37:04.542Z,9.67
2023-07-14T19:39:35.882Z,9.37
2023-07-14T19:42:17.159Z,10.83
2023-07-14T19:47:18.725Z,7.67
2023-07-14T19:49:49.057Z,9.10
2023-07-14T19:52:19.374Z,7.43
2023-07-14T19:54:50.933Z,13.20
2023-07-14T19:57:21.203Z,8.83
2023-07-14T20:00:01.125Z,7.83
2023-07-14T20:02:31.568Z,7.43
2023-07-14T20:05:02.870Z,7.77
2023-07-14T20:07:32.987Z,7.70
2023-07-14T20:10:02.712Z,8.07
2023-07-14T20:12:33.225Z,9.47
2023-07-14T20:15:04.777Z,9.77
2023-07-14T20:17:35.763Z,9.20
2023-07-14T20:20:14.654Z,9.03
2023-07-14T20:22:49.354Z,10.13
2023-07-14T20:25:20.591Z,9.37
2023-07-14T20:27:50.807Z,9.33
2023-07-14T20:30:23.715Z,9.63
2023-07-14T20:32:53.643Z,9.80
2023-07-14T20:35:25.318Z,8.10
2023-07-14T20:37:55.295Z,9.70
2023-07-14T20:40:25.213Z,9.93
2023-07-14T20:42:55.745Z,8.50
2023-07-14T20:45:25.739Z,7.83
2023-07-14T20:47:56.010Z,8.13
2023-07-14T20:50:28.923Z,10.40
2023-07-14T20:53:00.311Z,10.93
2023-07-14T20:58:01.929Z,9.27
2023-07-14T21:00:32.301Z,11.03
2023-07-14T21:03:04.458Z,10.23
2023-07-14T21:05:34.633Z,11.27
2023-07-14T21:08:17.624Z,8.10
2023-07-14T21:10:48.776Z,6.97
2023-07-14T21:15:52.803Z,8.03
2023-07-14T21:18:24.236Z,8.53
2023-07-14T21:20:54.548Z,11.07
2023-07-14T21:23:26.635Z,11.00
2023-07-14T21:25:58.506Z,9.27
2023-07-14T21:28:29.414Z,10.63
2023-07-14T21:31:03.945Z,9.15
2023-07-14T21:33:36.332Z,10.53
2023-07-14T21:36:07.773Z,10.97
2023-07-14T21:38:38.289Z,8.87
2023-07-14T21:41:10.583Z,8.70
2023-07-14T21:43:42.620Z,9.13
2023-07-14T21:46:16.588Z,10.93
2023-07-14T21:48:47.220Z,7.93
2023-07-14T21:51:19.462Z,9.07
2023-07-14T21:53:52.968Z,9.63
2023-07-14T21:56:23.405Z,9.33
2023-07-14T21:58:53.511Z,8.70
2023-07-14T22:01:26.023Z,9.73
2023-07-14T22:03:57.604Z,9.27
2023-07-14T22:06:28.641Z,11.57
2023-07-14T22:08:59.173Z,9.55
2023-07-14T22:11:31.119Z,8.50
2023-07-14T22:14:02.268Z,10.70
2023-07-14T22:19:01.950Z,12.50
2023-07-14T22:21:33.402Z,9.83
2023-07-14T22:24:04.185Z,10.40
2023-07-14T22:26:34.303Z,9.58
2023-07-14T22:29:04.439Z,13.63
2023-07-14T22:31:35.556Z,8.97
2023-07-14T22:34:14.279Z,13.13
2023-07-14T22:36:44.192Z,9.50
2023-07-14T22:39:18.175Z,9.50
2023-07-14T22:41:50.419Z,11.43
2023-07-14T22:44:20.292Z,7.97
2023-07-14T22:46:50.432Z,10.23
2023-07-14T22:49:20.736Z,9.37
2023-07-14T22:51:54.150Z,9.43
2023-07-14T22:54:24.644Z,12.30
2023-07-14T22:56:54.973Z,13.00
2023-07-14T22:59:25.087Z,7.50
2023-07-14T23:01:56.502Z,7.33
2023-07-14T23:06:55.447Z,6.63
2023-07-14T23:09:25.348Z,7.77
2023-07-14T23:11:55.686Z,10.43
2023-07-14T23:14:26.009Z,10.30
2023-07-14T23:16:56.254Z,9.53
2023-07-14T23:19:27.394Z,8.30
2023-07-14T23:21:57.592Z,8.33
2023-07-14T23:24:27.626Z,8.17
2023-07-14T23:26:57.833Z,9.13
2023-07-14T23:29:27.672Z,9.40
2023-07-14T23:31:57.492Z,8.63
2023-07-14T23:34:27.767Z,7.43
2023-07-14T23:36:57.689Z,7.13
2023-07-14T23:39:27.252Z,8.77
2023-07-14T23:41:57.312Z,8.37
2023-07-14T23:44:27.573Z,7.37
2023-07-14T23:46:57.950Z,8.20
2023-07-14T23:49:28.278Z,7.87
2023-07-14T23:51:58.807Z,11.90
2023-07-14T23:54:30.154Z,8.60
2023-07-14T23:59:28.749Z,9.57
